createdAt,value
2022-12-25T00:01:09.953Z,88.97
2022-12-25T00:03:37.177Z,88.72
2022-12-25T00:06:04.076Z,88.85
2022-12-25T00:08:30.916Z,88.99
2022-12-25T00:11:01.638Z,89.19
2022-12-25T00:13:28.591Z,89.50
2022-12-25T00:15:55.447Z,89.87
2022-12-25T00:18:22.583Z,90.08
2022-12-25T00:21:00.796Z,89.88
2022-12-25T00:23:27.872Z,90.51
2022-12-25T00:25:55.457Z,89.94
2022-12-25T00:28:22.911Z,90.21
2022-12-25T00:30:49.447Z,90.49
2022-12-25T00:33:16.108Z,90.40
2022-12-25T00:35:42.637Z,90.02
2022-12-25T00:38:09.396Z,89.59
2022-12-25T00:40:43.099Z,88.89
2022-12-25T00:43:09.987Z,89.05
2022-12-25T00:45:36.526Z,89.16
2022-12-25T00:48:03.338Z,89.35
2022-12-25T00:50:29.876Z,89.21
2022-12-25T00:52:56.389Z,89.54
2022-12-25T00:55:22.938Z,90.10
2022-12-25T00:57:49.472Z,89.77
2022-12-25T01:00:16.208Z,89.38
2022-12-25T01:02:42.942Z,88.98
2022-12-25T01:05:09.719Z,89.42
2022-12-25T01:07:36.214Z,89.71
2022-12-25T01:10:21.397Z,89.92
2022-12-25T01:12:47.948Z,90.14
2022-12-25T01:15:14.535Z,90.34
2022-12-25T01:17:42.119Z,90.10
2022-12-25T01:20:09.336Z,89.67
2022-12-25T01:22:35.943Z,89.71
2022-12-25T01:25:02.706Z,89.46
2022-12-25T01:27:29.347Z,89.12
2022-12-25T01:29:55.834Z,88.94
2022-12-25T01:32:22.385Z,88.55
2022-12-25T01:34:53.859Z,88.29
2022-12-25T01:37:22.351Z,88.33
2022-12-25T01:39:48.920Z,88.15
2022-12-25T01:42:20.217Z,88.23
2022-12-25T01:44:46.592Z,88.05
2022-12-25T01:47:13.563Z,87.87
2022-12-25T01:49:41.709Z,88.33
2022-12-25T01:52:12.285Z,88.40
2022-12-25T01:54:45.284Z,87.95
2022-12-25T01:57:17.844Z,87.91
2022-12-25T01:59:44.588Z,87.94
2022-12-25T02:02:11.765Z,88.20
2022-12-25T02:04:56.452Z,88.14
2022-12-25T02:07:24.786Z,88.16
2022-12-25T02:09:51.968Z,88.60
2022-12-25T02:12:21.210Z,88.33
2022-12-25T02:14:49.701Z,88.16
2022-12-25T02:17:33.259Z,88.19
2022-12-25T02:20:21.513Z,88.05
2022-12-25T02:23:23.323Z,88.36
2022-12-25T02:26:27.449Z,88.31
2022-12-25T02:29:15.749Z,88.23
2022-12-25T02:31:48.469Z,88.39
2022-12-25T02:34:19.011Z,88.22
2022-12-25T02:36:50.161Z,88.56
2022-12-25T02:39:48.260Z,88.47
2022-12-25T02:42:22.560Z,88.36
2022-12-25T02:45:08.814Z,88.52
2022-12-25T02:47:54.583Z,88.39
2022-12-25T02:50:40.061Z,88.75
2022-12-25T02:53:26.294Z,89.54
2022-12-25T02:56:11.869Z,89.77
2022-12-25T02:58:58.188Z,89.67
2022-12-25T03:01:47.162Z,90.08
2022-12-25T03:04:35.801Z,89.93
2022-12-25T03:07:12.265Z,90.23
2022-12-25T03:10:00.491Z,89.68
2022-12-25T03:13:10.556Z,89.68
2022-12-25T03:15:55.552Z,89.07
2022-12-25T03:18:24.436Z,89.30
2022-12-25T03:21:10.495Z,88.78
2022-12-25T03:23:56.910Z,88.73
2022-12-25T03:26:43.674Z,88.40
2022-12-25T03:29:10.677Z,88.72
2022-12-25T03:31:47.038Z,88.38
2022-12-25T03:34:50.934Z,88.56
2022-12-25T03:37:33.251Z,88.91
2022-12-25T03:40:29.139Z,89.07
2022-12-25T03:43:20.797Z,88.90
2022-12-25T03:46:10.127Z,88.95
2022-12-25T03:48:59.439Z,88.46
2022-12-25T03:51:49.268Z,88.79
2022-12-25T03:54:38.003Z,88.71
2022-12-25T03:57:23.746Z,88.87
2022-12-25T04:00:09.026Z,88.91
2022-12-25T04:02:55.239Z,88.64
2022-12-25T04:05:40.186Z,88.44
2022-12-25T04:08:25.429Z,88.60
2022-12-25T04:11:10.415Z,88.57
2022-12-25T04:13:55.665Z,88.77
2022-12-25T04:16:40.649Z,88.21
2022-12-25T04:19:25.959Z,88.29
2022-12-25T04:22:10.854Z,88.74
2022-12-25T04:24:56.058Z,88.57
2022-12-25T04:27:41.299Z,88.17
2022-12-25T04:30:27.039Z,88.57
2022-12-25T04:33:16.951Z,88.30
2022-12-25T04:36:08.106Z,88.47
2022-12-25T04:38:34.751Z,88.75
2022-12-25T04:41:01.821Z,88.98
2022-12-25T04:43:28.620Z,88.98
2022-12-25T04:45:56.501Z,88.78
2022-12-25T04:48:23.160Z,88.98
2022-12-25T04:50:49.705Z,88.70
2022-12-25T04:53:17.340Z,88.21
2022-12-25T04:55:43.979Z,88.46
2022-12-25T04:58:11.101Z,88.49
2022-12-25T05:00:37.621Z,88.26
2022-12-25T05:03:04.452Z,88.43
2022-12-25T05:05:31.042Z,88.33
2022-12-25T05:07:58.069Z,88.68
2022-12-25T05:10:24.615Z,88.77
2022-12-25T05:12:51.167Z,89.10
2022-12-25T05:15:18.042Z,88.97
2022-12-25T05:17:44.587Z,88.85
2022-12-25T05:20:14.073Z,88.94
2022-12-25T05:22:42.149Z,89.05
2022-12-25T05:25:08.818Z,89.02
2022-12-25T05:27:35.345Z,88.62
2022-12-25T05:30:01.845Z,89.07
2022-12-25T05:32:28.388Z,89.18
2022-12-25T05:34:55.433Z,89.24
2022-12-25T05:37:22.054Z,89.38
2022-12-25T05:39:48.561Z,89.38
2022-12-25T05:42:15.201Z,89.43
2022-12-25T05:44:41.702Z,89.34
2022-12-25T05:47:08.249Z,88.87
2022-12-25T05:49:34.726Z,89.17
2022-12-25T05:52:01.235Z,89.18
2022-12-25T05:54:27.795Z,89.27
2022-12-25T05:56:54.333Z,88.65
2022-12-25T05:59:20.931Z,89.32
2022-12-25T06:01:47.965Z,89.24
2022-12-25T06:04:14.640Z,89.25
2022-12-25T06:06:41.518Z,88.71
2022-12-25T06:09:08.991Z,89.16
2022-12-25T06:11:35.467Z,89.20
2022-12-25T06:14:01.992Z,89.87
2022-12-25T06:16:34.028Z,89.52
2022-12-25T06:19:04.149Z,89.40
2022-12-25T06:21:30.770Z,89.62
2022-12-25T06:23:57.371Z,89.77
2022-12-25T06:26:23.908Z,89.82
2022-12-25T06:28:50.405Z,89.99
2022-12-25T06:31:22.451Z,89.75
2022-12-25T06:33:49.536Z,90.18
2022-12-25T06:36:21.977Z,89.90
2022-12-25T06:38:48.838Z,89.76
2022-12-25T06:41:17.777Z,90.19
2022-12-25T06:43:48.122Z,89.97
2022-12-25T06:46:14.873Z,90.29
2022-12-25T06:48:47.858Z,89.97
2022-12-25T06:51:24.526Z,89.90
2022-12-25T06:53:52.124Z,89.97
2022-12-25T06:56:21.202Z,90.13
2022-12-25T06:58:53.085Z,89.74
2022-12-25T07:01:24.176Z,90.18
2022-12-25T07:03:54.853Z,90.32
2022-12-25T07:06:21.575Z,90.62
2022-12-25T07:08:48.228Z,90.32
2022-12-25T07:11:14.991Z,90.78
2022-12-25T07:13:41.676Z,90.23
2022-12-25T07:16:08.362Z,89.72
2022-12-25T07:18:35.175Z,89.76
2022-12-25T07:21:09.734Z,89.13
2022-12-25T07:23:37.218Z,89.50
2022-12-25T07:26:03.815Z,89.14
2022-12-25T07:28:31.227Z,89.62
2022-12-25T07:31:05.763Z,89.53
2022-12-25T07:33:32.655Z,89.94
2022-12-25T07:35:59.158Z,89.75
2022-12-25T07:38:25.725Z,89.71
2022-12-25T07:40:52.459Z,89.74
2022-12-25T07:43:19.021Z,89.67
2022-12-25T07:45:45.618Z,89.92
2022-12-25T07:48:16.679Z,89.09
2022-12-25T07:50:43.646Z,89.31
2022-12-25T07:53:10.217Z,89.55
2022-12-25T07:55:36.739Z,89.69
2022-12-25T07:58:03.269Z,89.82
2022-12-25T08:00:33.671Z,89.64
2022-12-25T08:03:00.346Z,89.54
2022-12-25T08:05:27.123Z,89.56
2022-12-25T08:07:57.614Z,89.33
2022-12-25T08:10:24.570Z,88.94
2022-12-25T08:12:51.979Z,89.32
2022-12-25T08:15:18.548Z,90.05
2022-12-25T08:17:45.045Z,89.84
2022-12-25T08:20:11.889Z,89.60
2022-12-25T08:22:38.396Z,90.10
2022-12-25T08:25:05.174Z,89.13
2022-12-25T08:27:31.782Z,89.81
2022-12-25T08:29:58.314Z,89.89
2022-12-25T08:32:24.783Z,89.22
2022-12-25T08:34:51.487Z,89.45
2022-12-25T08:37:18.019Z,89.69
2022-12-25T08:39:44.514Z,89.66
2022-12-25T08:42:11.032Z,89.39
2022-12-25T08:44:37.580Z,89.46
2022-12-25T08:47:04.264Z,89.21
2022-12-25T08:49:30.819Z,88.84
2022-12-25T08:51:57.457Z,88.22
2022-12-25T08:54:24.965Z,88.51
2022-12-25T08:56:51.479Z,88.42
2022-12-25T08:59:18.011Z,87.93
2022-12-25T09:01:44.577Z,88.94
2022-12-25T09:04:11.176Z,88.66
2022-12-25T09:06:37.991Z,88.46
2022-12-25T09:09:04.550Z,88.51
2022-12-25T09:11:31.052Z,88.76
2022-12-25T09:13:57.611Z,88.48
2022-12-25T09:16:24.244Z,88.76
2022-12-25T09:18:51.164Z,88.64
2022-12-25T09:21:18.044Z,88.80
2022-12-25T09:23:44.655Z,88.71
2022-12-25T09:26:13.231Z,88.21
2022-12-25T09:28:43.703Z,88.36
2022-12-25T09:31:13.290Z,88.02
2022-12-25T09:33:39.880Z,87.72
2022-12-25T09:36:08.248Z,87.88
2022-12-25T09:38:35.516Z,87.69
2022-12-25T09:41:06.303Z,87.91
2022-12-25T09:43:38.575Z,88.06
2022-12-25T09:46:07.328Z,88.37
2022-12-25T09:48:35.294Z,88.39
2022-12-25T09:51:06.647Z,88.28
2022-12-25T09:53:41.007Z,88.69
2022-12-25T09:56:13.631Z,87.98
2022-12-25T09:58:40.220Z,88.08
2022-12-25T10:01:12.613Z,88.29
2022-12-25T10:03:54.793Z,87.60
2022-12-25T10:06:26.687Z,88.12
2022-12-25T10:09:10.944Z,87.95
2022-12-25T10:11:43.720Z,88.14
2022-12-25T10:14:24.926Z,88.27
2022-12-25T10:16:56.120Z,88.11
2022-12-25T10:19:31.414Z,88.57
2022-12-25T10:22:02.117Z,88.30
2022-12-25T10:24:34.269Z,87.99
2022-12-25T10:27:03.425Z,87.94
2022-12-25T10:29:32.724Z,87.85
2022-12-25T10:31:59.462Z,88.11
2022-12-25T10:34:27.749Z,87.99
2022-12-25T10:36:54.439Z,88.61
2022-12-25T10:39:23.952Z,88.12
2022-12-25T10:42:09.054Z,88.20
2022-12-25T10:44:35.636Z,88.38
2022-12-25T10:47:03.285Z,88.66
2022-12-25T10:49:38.850Z,88.50
2022-12-25T10:52:27.305Z,88.33
2022-12-25T10:54:54.292Z,88.18
2022-12-25T10:57:22.811Z,88.66
2022-12-25T10:59:51.563Z,89.00
2022-12-25T11:02:38.419Z,88.84
2022-12-25T11:05:06.655Z,88.96
2022-12-25T11:07:33.679Z,88.87
2022-12-25T11:10:05.637Z,88.65
2022-12-25T11:12:37.409Z,88.91
2022-12-25T11:15:23.437Z,88.50
2022-12-25T11:17:49.972Z,88.87
2022-12-25T11:20:17.657Z,88.11
2022-12-25T11:22:45.820Z,88.80
2022-12-25T11:25:22.202Z,88.40
2022-12-25T11:28:01.986Z,88.46
2022-12-25T11:30:33.517Z,88.24
2022-12-25T11:33:05.489Z,88.42
2022-12-25T11:35:38.052Z,88.18
2022-12-25T11:38:04.625Z,88.34
2022-12-25T11:40:41.740Z,88.45
2022-12-25T11:43:32.103Z,87.88
2022-12-25T11:46:18.713Z,87.68
2022-12-25T11:48:56.055Z,87.25
2022-12-25T11:51:25.578Z,87.79
2022-12-25T11:53:54.696Z,87.55
2022-12-25T11:56:25.035Z,87.75
2022-12-25T11:58:57.376Z,87.27
2022-12-25T12:01:44.343Z,87.47
2022-12-25T12:04:21.953Z,87.59
2022-12-25T12:07:20.911Z,87.56
2022-12-25T12:10:09.296Z,87.79
2022-12-25T12:12:48.809Z,87.88
2022-12-25T12:15:21.997Z,87.90
2022-12-25T12:17:48.701Z,88.21
2022-12-25T12:20:33.190Z,88.23
2022-12-25T12:23:00.980Z,88.48
2022-12-25T12:25:28.714Z,88.14
2022-12-25T12:28:04.928Z,88.63
2022-12-25T12:30:35.650Z,88.43
2022-12-25T12:33:04.602Z,88.29
2022-12-25T12:35:36.762Z,88.10
2022-12-25T12:38:15.696Z,88.11
2022-12-25T12:40:50.970Z,87.78
2022-12-25T12:43:41.300Z,87.99
2022-12-25T12:46:31.648Z,87.39
2022-12-25T12:49:17.092Z,87.82
2022-12-25T12:51:43.614Z,87.76
2022-12-25T12:54:22.185Z,87.63
2022-12-25T12:56:58.791Z,88.03
2022-12-25T12:59:26.314Z,87.97
2022-12-25T13:02:32.033Z,87.66
2022-12-25T13:05:14.408Z,87.32
2022-12-25T13:08:10.698Z,87.82
2022-12-25T13:10:39.505Z,87.95
2022-12-25T13:13:24.773Z,87.55
2022-12-25T13:15:52.109Z,88.11
2022-12-25T13:18:18.840Z,88.03
2022-12-25T13:20:57.375Z,87.89
2022-12-25T13:23:30.221Z,87.82
2022-12-25T13:25:58.910Z,88.07
2022-12-25T13:28:46.064Z,87.91
2022-12-25T13:31:19.026Z,88.19
2022-12-25T13:34:04.161Z,87.84
2022-12-25T13:36:36.824Z,87.98
2022-12-25T13:39:07.657Z,87.92
2022-12-25T13:42:05.044Z,88.26
2022-12-25T13:44:41.641Z,88.35
2022-12-25T13:47:25.306Z,87.96
2022-12-25T13:49:54.251Z,88.19
2022-12-25T13:52:28.727Z,88.29
2022-12-25T13:55:04.037Z,88.47
2022-12-25T13:57:34.235Z,88.33
2022-12-25T14:00:00.965Z,88.45
2022-12-25T14:02:31.310Z,87.96
2022-12-25T14:04:58.132Z,87.98
2022-12-25T14:07:24.729Z,88.22
2022-12-25T14:09:54.838Z,88.48
2022-12-25T14:12:22.194Z,88.39
2022-12-25T14:14:49.771Z,87.95
2022-12-25T14:17:16.397Z,87.90
2022-12-25T14:19:42.896Z,88.09
2022-12-25T14:22:12.200Z,88.08
2022-12-25T14:24:40.110Z,87.98
2022-12-25T14:27:17.569Z,87.84
2022-12-25T14:29:45.844Z,88.55
2022-12-25T14:32:15.856Z,88.17
2022-12-25T14:34:46.074Z,88.89
2022-12-25T14:37:18.350Z,88.94
2022-12-25T14:39:47.999Z,88.86
2022-12-25T14:42:23.967Z,88.46
2022-12-25T14:45:01.658Z,88.60
2022-12-25T14:47:28.910Z,88.65
2022-12-25T14:49:55.569Z,88.84
2022-12-25T14:52:29.569Z,88.82
2022-12-25T14:54:59.579Z,88.76
2022-12-25T14:57:38.967Z,88.71
2022-12-25T15:00:22.003Z,88.59
2022-12-25T15:02:49.712Z,88.91
2022-12-25T15:05:42.764Z,89.10
2022-12-25T15:08:10.215Z,88.64
2022-12-25T15:13:25.629Z,88.78
2022-12-25T15:16:04.809Z,88.72
2022-12-25T15:18:36.342Z,89.03
2022-12-25T15:21:02.855Z,89.19
2022-12-25T15:23:29.523Z,88.76
2022-12-25T15:25:56.085Z,88.36
2022-12-25T15:28:22.672Z,88.99
2022-12-25T15:30:50.053Z,88.60
2022-12-25T15:33:17.962Z,88.83
2022-12-25T15:35:44.705Z,89.41
2022-12-25T15:38:12.415Z,88.73
2022-12-25T15:40:39.674Z,89.33
2022-12-25T15:43:11.455Z,88.72
2022-12-25T15:45:49.035Z,88.61
2022-12-25T15:48:15.557Z,88.69
2022-12-25T15:50:42.771Z,89.17
2022-12-25T15:53:10.706Z,89.14
2022-12-25T15:55:37.189Z,88.92
2022-12-25T15:58:03.699Z,89.13
2022-12-25T16:00:30.507Z,88.66
2022-12-25T16:02:57.250Z,88.60
2022-12-25T16:05:24.647Z,88.73
2022-12-25T16:07:51.196Z,88.58
2022-12-25T16:10:19.379Z,88.71
2022-12-25T16:12:46.522Z,88.53
2022-12-25T16:15:14.638Z,89.10
2022-12-25T16:17:41.762Z,88.60
2022-12-25T16:20:08.814Z,88.61
2022-12-25T16:22:39.956Z,89.16
2022-12-25T16:25:18.414Z,89.06
2022-12-25T16:27:45.098Z,89.18
2022-12-25T16:30:14.029Z,88.90
2022-12-25T16:32:42.196Z,88.71
2022-12-25T16:35:09.684Z,88.41
2022-12-25T16:37:36.903Z,88.98
2022-12-25T16:40:04.129Z,88.38
2022-12-25T16:42:30.707Z,88.70
2022-12-25T16:44:57.238Z,88.96
2022-12-25T16:47:23.747Z,88.78
2022-12-25T16:50:16.379Z,88.91
2022-12-25T16:52:42.896Z,89.73
2022-12-25T16:55:09.864Z,89.40
2022-12-25T16:57:36.422Z,89.46
2022-12-25T17:00:02.965Z,89.11
2022-12-25T17:02:29.799Z,89.39
2022-12-25T17:04:56.432Z,89.96
2022-12-25T17:07:22.987Z,89.76
2022-12-25T17:09:49.819Z,89.72
2022-12-25T17:12:16.718Z,89.64
2022-12-25T17:14:43.200Z,89.31
2022-12-25T17:17:09.669Z,89.81
2022-12-25T17:19:36.819Z,89.46
2022-12-25T17:22:03.511Z,90.28
2022-12-25T17:24:30.104Z,89.80
2022-12-25T17:26:56.604Z,89.46
2022-12-25T17:29:25.015Z,89.75
2022-12-25T17:31:51.620Z,89.80
2022-12-25T17:34:18.387Z,89.66
2022-12-25T17:36:44.929Z,89.85
2022-12-25T17:39:11.563Z,89.61
2022-12-25T17:41:38.123Z,89.68
2022-12-25T17:44:05.027Z,89.59
2022-12-25T17:46:32.088Z,89.73
2022-12-25T17:49:00.411Z,90.27
2022-12-25T17:51:28.600Z,90.59
2022-12-25T17:53:58.326Z,90.12
2022-12-25T17:56:25.675Z,90.39
2022-12-25T17:58:57.820Z,90.04
2022-12-25T18:01:25.775Z,90.61
2022-12-25T18:03:52.785Z,90.17
2022-12-25T18:06:21.907Z,90.05
2022-12-25T18:08:49.210Z,90.52
2022-12-25T18:11:21.032Z,90.15
2022-12-25T18:13:49.935Z,90.51
2022-12-25T18:16:17.271Z,90.84
2022-12-25T18:18:51.407Z,90.84
2022-12-25T18:21:18.999Z,90.53
2022-12-25T18:23:46.357Z,90.85
2022-12-25T18:26:13.203Z,90.97
2022-12-25T18:28:40.166Z,90.44
2022-12-25T18:31:13.613Z,91.02
2022-12-25T18:33:42.017Z,90.88
2022-12-25T18:36:09.090Z,91.08
2022-12-25T18:38:38.518Z,91.45
2022-12-25T18:41:06.395Z,91.74
2022-12-25T18:43:53.693Z,91.41
2022-12-25T18:46:22.374Z,91.30
2022-12-25T18:48:49.212Z,91.61
2022-12-25T18:51:15.679Z,91.50
2022-12-25T18:53:42.167Z,91.06
2022-12-25T18:56:12.091Z,91.63
2022-12-25T18:58:39.296Z,91.58
2022-12-25T19:01:16.268Z,91.78
2022-12-25T19:03:43.144Z,91.55
2022-12-25T19:06:09.816Z,91.87
2022-12-25T19:08:36.445Z,91.45
2022-12-25T19:11:06.925Z,91.86
2022-12-25T19:13:33.406Z,91.68
2022-12-25T19:16:00.576Z,91.52
2022-12-25T19:18:27.177Z,91.63
2022-12-25T19:20:53.668Z,91.90
2022-12-25T19:23:20.165Z,91.75
2022-12-25T19:25:46.733Z,91.30
2022-12-25T19:28:13.236Z,91.55
2022-12-25T19:30:39.874Z,91.26
2022-12-25T19:33:07.444Z,91.75
2022-12-25T19:35:40.302Z,91.55
2022-12-25T19:38:06.852Z,91.18
2022-12-25T19:40:37.414Z,91.26
2022-12-25T19:43:04.065Z,91.30
2022-12-25T19:45:30.619Z,91.90
2022-12-25T19:48:01.092Z,91.60
2022-12-25T19:50:31.852Z,91.26
2022-12-25T19:52:58.376Z,91.83
2022-12-25T19:55:24.914Z,91.97
2022-12-25T19:57:51.531Z,91.40
2022-12-25T20:00:18.117Z,91.85
2022-12-25T20:02:44.693Z,91.36
2022-12-25T20:05:11.374Z,91.70
2022-12-25T20:07:38.012Z,91.31
2022-12-25T20:10:04.674Z,90.93
2022-12-25T20:12:31.947Z,91.47
2022-12-25T20:14:58.801Z,91.63
2022-12-25T20:17:25.404Z,91.54
2022-12-25T20:19:51.870Z,91.88
2022-12-25T20:22:18.379Z,91.40
2022-12-25T20:24:44.850Z,91.53
2022-12-25T20:27:11.323Z,91.92
2022-12-25T20:29:37.810Z,91.45
2022-12-25T20:32:04.924Z,91.69
2022-12-25T20:34:31.682Z,91.06
2022-12-25T20:36:58.179Z,91.37
2022-12-25T20:39:24.691Z,91.76
2022-12-25T20:41:51.574Z,91.37
2022-12-25T20:44:18.144Z,92.16
2022-12-25T20:46:45.908Z,91.73
2022-12-25T20:49:13.103Z,91.49
2022-12-25T20:51:39.795Z,91.40
2022-12-25T20:54:07.977Z,91.61
2022-12-25T20:56:34.813Z,91.07
2022-12-25T20:59:02.185Z,91.02
2022-12-25T21:01:31.058Z,91.19
2022-12-25T21:03:58.410Z,90.99
2022-12-25T21:06:25.015Z,91.13
2022-12-25T21:08:51.639Z,91.37
2022-12-25T21:11:18.534Z,90.70
2022-12-25T21:13:46.066Z,91.18
2022-12-25T21:16:19.716Z,90.85
2022-12-25T21:18:47.059Z,91.18
2022-12-25T21:21:14.314Z,91.28
2022-12-25T21:23:41.039Z,91.07
2022-12-25T21:26:21.094Z,91.41
2022-12-25T21:28:49.102Z,91.23
2022-12-25T21:31:15.825Z,91.30
2022-12-25T21:33:51.520Z,91.45
2022-12-25T21:36:20.276Z,91.25
2022-12-25T21:38:46.814Z,92.09
2022-12-25T21:41:14.418Z,92.37
2022-12-25T21:43:42.791Z,92.36
2022-12-25T21:46:12.796Z,92.11
2022-12-25T21:48:40.362Z,91.92
2022-12-25T21:51:47.236Z,91.39
2022-12-25T21:54:14.741Z,92.18
2022-12-25T21:56:44.990Z,91.73
2022-12-25T21:59:14.883Z,91.38
2022-12-25T22:01:41.462Z,91.65
2022-12-25T22:04:10.840Z,91.30
2022-12-25T22:06:56.298Z,91.93
2022-12-25T22:09:23.394Z,91.87
2022-12-25T22:12:08.488Z,91.33
2022-12-25T22:14:54.244Z,91.31
2022-12-25T22:17:44.019Z,92.09
2022-12-25T22:20:17.251Z,91.66
2022-12-25T22:22:44.306Z,91.70
2022-12-25T22:25:11.919Z,91.76
2022-12-25T22:27:39.980Z,91.67
2022-12-25T22:30:11.549Z,91.44
2022-12-25T22:32:38.088Z,91.20
2022-12-25T22:35:05.104Z,90.93
2022-12-25T22:37:32.336Z,90.85
2022-12-25T22:40:02.172Z,91.35
2022-12-25T22:42:28.762Z,91.11
2022-12-25T22:44:55.275Z,91.45
2022-12-25T22:47:23.830Z,90.97
2022-12-25T22:49:50.388Z,90.81
2022-12-25T22:52:16.908Z,91.19
2022-12-25T22:54:43.451Z,90.95
2022-12-25T22:57:09.974Z,90.60
2022-12-25T22:59:36.502Z,90.84
2022-12-25T23:02:03.085Z,91.13
2022-12-25T23:04:29.708Z,91.05
2022-12-25T23:06:56.581Z,90.59
2022-12-25T23:09:27.807Z,90.75
2022-12-25T23:11:56.226Z,91.28
2022-12-25T23:14:41.791Z,90.83
2022-12-25T23:17:31.687Z,90.91
2022-12-25T23:20:17.989Z,91.29
2022-12-25T23:23:04.240Z,90.89
2022-12-25T23:25:49.445Z,90.85
2022-12-25T23:28:35.943Z,91.21
2022-12-25T23:31:02.469Z,91.06
2022-12-25T23:33:29.076Z,90.98
2022-12-25T23:35:55.562Z,91.12
2022-12-25T23:38:22.137Z,91.00
2022-12-25T23:40:48.642Z,90.89
2022-12-25T23:43:15.137Z,90.62
2022-12-25T23:45:41.721Z,90.48
2022-12-25T23:48:08.593Z,90.67
2022-12-25T23:50:35.128Z,90.84
2022-12-25T23:53:01.657Z,90.53
2022-12-25T23:55:28.204Z,90.38
2022-12-25T23:57:54.713Z,90.57
